Flight Track Log - Related Links

Times and Time Zones

All times are in EDT time to prevent confusion due to time zone crossing. See the GLA61C flight status page for this flight to view local times or setup timezone preferences in your user account.

Time Position Orientation Groundspeed Altitude Reporting Facility
EDT Latitude Longitude Course Direction KTS MPH feet Rate Location/Type
Sat 09:12:14 AM 37.3814 -108.5692 45° Northeast 154 177 10,700  Level Denver Center
Sat 09:13:15 AM 37.4139 -108.5278 45° Northeast 159 183 12,800 2,231 Climbing Denver Center
Sat 09:14:15 AM 37.4544 -108.4719 48° Northeast 177 204 15,200 2,083 Climbing Denver Center
Sat 09:15:16 AM 37.4922 -108.4228 46° Northeast 195 224 17,000 1,721 Climbing Denver Center
Sat 09:16:17 AM 37.5225 -108.3642 57° Northeast 203 234 18,700 1,785 Climbing Denver Center
Sat 09:17:17 AM 37.5633 -108.2967 53° Northeast 213 245 20,600 1,587 Climbing Denver Center
Sat 09:18:18 AM 37.6006 -108.2450 48° Northeast 211 243 21,900 1,279 Climbing Denver Center
Sat 09:19:19 AM 37.6367 -108.1833 54° Northeast 221 254 23,200 1,289 Climbing Denver Center
Sat 09:20:19 AM 37.6808 -108.1158 50° Northeast 223 257 24,500 893 Climbing Denver Center
Sat 09:21:20 AM 37.7222 -108.0594 47° Northeast 229 264 25,000 246 Climbing Denver Center
Sat 09:22:21 AM 37.7686 -107.9947 48° Northeast 252 290 25,000  Level Denver Center
Sat 09:23:21 AM 37.8250 -107.9147 48° Northeast 269 310 25,000  Level Denver Center
Sat 09:24:22 AM 37.8744 -107.8461 48° Northeast 274 315 25,000 -49 Level Denver Center
Sat 09:25:23 AM 37.9269 -107.7831 43° Northeast 273 314 24,900  Descending Denver Center
Sat 09:26:23 AM 37.9839 -107.7028 48° Northeast 273 314 25,000  Climbing Denver Center
Sat 09:27:24 AM 38.0308 -107.6319 50° Northeast 274 315 24,900 -49 Descending Denver Center
Sat 09:28:25 AM 38.0817 -107.5550 50° Northeast 273 314 24,900  Level Denver Center
Sat 09:29:25 AM 38.1317 -107.4911 45° Northeast 268 308 24,900  Level Denver Center
Sat 09:30:26 AM 38.1814 -107.4289 45° Northeast 264 304 24,900 49 Level Denver Center
Sat 09:31:27 AM 38.2403 -107.3561 44° Northeast 263 303 25,000 50 Climbing Denver Center
Sat 09:32:27 AM 38.2878 -107.2908 47° Northeast 263 303 25,000  Level Denver Center
Sat 09:33:28 AM 38.3308 -107.2181 53° Northeast 267 307 25,000  Level Denver Center
Sat 09:34:29 AM 38.3772 -107.1383 53° Northeast 270 311 25,000 -50 Level Denver Center
Sat 09:35:29 AM 38.4242 -107.0614 52° Northeast 273 314 24,900  Descending Denver Center
Sat 09:36:30 AM 38.4661 -106.9794 57° Northeast 278 320 25,000 49 Climbing Denver Center
Sat 09:37:31 AM 38.4992 -106.8897 65° Northeast 280 322 25,000 -49 Level Denver Center
Sat 09:38:32 AM 38.5333 -106.8017 64° Northeast 279 321 24,900  Descending Denver Center
Sat 09:39:33 AM 38.5661 -106.7117 65° Northeast 280 322 25,000 50 Climbing Denver Center
Sat 09:40:33 AM 38.5967 -106.6219 66° East 277 319 25,000  Level Denver Center
Sat 09:41:34 AM 38.6275 -106.5331 66° East 275 316 25,000  Level Denver Center
Sat 09:42:35 AM 38.6589 -106.4428 66° East 277 319 25,000  Level Denver Center
Sat 09:43:36 AM 38.6878 -106.3531 68° East 273 314 25,000  Level Denver Center
Sat 09:44:37 AM 38.7186 -106.2411 71° East 277 319 25,000 -49 Level Denver Center
Sat 09:45:38 AM 38.7486 -106.1514 67° East 274 315 24,900  Descending Denver Center
Sat 09:46:38 AM 38.7819 -106.0692 63° Northeast 272 313 25,000 50 Climbing Denver Center
Sat 09:47:39 AM 38.8175 -105.9850 62° Northeast 276 318 25,000  Level Denver Center
Sat 09:48:40 AM 38.8714 -105.9006 51° Northeast 275 316 25,000 -98 Level Denver Center
Sat 09:49:41 AM 38.9175 -105.8308 50° Northeast 268 308 24,800 -590 Descending Denver Center
Sat 09:50:42 AM 38.9664 -105.7606 48° Northeast 274 315 23,800 -1,082 Descending Denver Center
Sat 09:51:43 AM 39.0208 -105.6839 48° Northeast 261 300 22,600 -1,279 Descending Denver Center
Sat 09:52:44 AM 39.0683 -105.6153 48° Northeast 266 306 21,200 -1,343 Descending Denver Center
Sat 09:53:57 AM 39.1244 -105.5375 47° Northeast 266 306 19,600 -1,567 Descending Denver Center
Sat 09:54:58 AM 39.1797 -105.4528 50° Northeast 276 318 17,700 -1,770 Descending Denver Center
Sat 09:55:59 AM 39.2303 -105.3708 51° Northeast 273 314 16,000 -1,525 Descending Denver Center
Sat 09:57:00 AM 39.2819 -105.3036 45° Northeast 268 308 14,600 -984 Descending Denver Center
Sat 09:58:01 AM 39.3336 -105.2347 46° Northeast 266 306 14,000 -295 Descending Denver Center
Sat 09:59:02 AM 39.3864 -105.1675 45° Northeast 265 305 14,000  Level Denver Center
Sat 10:00:03 AM 39.4389 -105.0992 45° Northeast 268 308 14,000  Level Denver Center
Sat 10:01:04 AM 39.5000 -105.0308 41° Northeast 270 311 14,000 -683 Level Denver Center
Sat 10:02:06 AM 39.5178 -104.9350 76° East 294 338 12,600 -1,820 Descending Denver Center
Sat 10:03:06 AM 39.5558 -104.8606 56° Northeast 272 313 10,300 -2,083 Descending Denver Center
Sat 10:04:07 AM 39.6111 -104.8014 40° Northeast 265 305 8,400 -1,122 Descending Denver Center
Sat 10:05:09 AM 39.6642 -104.7244 48° Northeast 268 308 8,000 -244 Descending Denver Center
Sat 10:06:10 AM 39.7211 -104.6706 36° Northeast 256 295 7,900 -689 Descending Denver Center
Sat 10:07:11 AM 39.7764 -104.6608 North 188 216 6,600 -1,131 Descending Denver Center
Sat 10:08:12 AM 39.8247 -104.6606 360° North 164 189 5,600 -984 Descending Denver Center
Sat 10:10:00 AM 39.8500 -104.6667 346° North  Level FlightAware
Sat 10:17:00 AM 39.8617 -104.6732 346° North  Level Estimated
Sat 10:18:00 AM 39.8617 -104.6732 346° North  Level Estimated

Login

Don't have an account? Register now (free) for customized features, flight alerts, and more!